sensor_id;sensor_type;location;lat;lon;timestamp;P1;durP1;ratioP1;P2;durP2;ratioP2
438;SDS011;206;48.782;9.252;2024-01-27T00:01:50;2.93;;;2.10;;
438;SDS011;206;48.782;9.252;2024-01-27T00:04:16;5.00;;;3.70;;
438;SDS011;206;48.782;9.252;2024-01-27T00:06:41;3.43;;;2.20;;
438;SDS011;206;48.782;9.252;2024-01-27T00:09:07;10.67;;;2.43;;
438;SDS011;206;48.782;9.252;2024-01-27T00:11:33;3.63;;;2.60;;
438;SDS011;206;48.782;9.252;2024-01-27T00:13:58;3.80;;;1.90;;
438;SDS011;206;48.782;9.252;2024-01-27T00:16:24;3.47;;;2.43;;
438;SDS011;206;48.782;9.252;2024-01-27T00:18:50;4.77;;;2.73;;
438;SDS011;206;48.782;9.252;2024-01-27T00:21:16;3.83;;;2.40;;
438;SDS011;206;48.782;9.252;2024-01-27T00:23:41;4.50;;;2.07;;
438;SDS011;206;48.782;9.252;2024-01-27T00:26:07;3.87;;;2.07;;
438;SDS011;206;48.782;9.252;2024-01-27T00:28:32;5.80;;;2.40;;
438;SDS011;206;48.782;9.252;2024-01-27T00:30:58;7.43;;;2.40;;
438;SDS011;206;48.782;9.252;2024-01-27T00:33:24;5.73;;;2.53;;
438;SDS011;206;48.782;9.252;2024-01-27T00:35:49;3.93;;;2.37;;
438;SDS011;206;48.782;9.252;2024-01-27T00:38:16;3.23;;;2.13;;
438;SDS011;206;48.782;9.252;2024-01-27T00:40:42;7.00;;;2.70;;
438;SDS011;206;48.782;9.252;2024-01-27T00:43:07;5.80;;;2.00;;
438;SDS011;206;48.782;9.252;2024-01-27T00:45:33;4.73;;;2.10;;
438;SDS011;206;48.782;9.252;2024-01-27T00:47:59;3.20;;;2.03;;
438;SDS011;206;48.782;9.252;2024-01-27T00:50:24;3.73;;;2.57;;
438;SDS011;206;48.782;9.252;2024-01-27T00:52:50;2.87;;;2.07;;
438;SDS011;206;48.782;9.252;2024-01-27T00:55:16;4.47;;;1.90;;
438;SDS011;206;48.782;9.252;2024-01-27T00:57:42;6.23;;;2.00;;
438;SDS011;206;48.782;9.252;2024-01-27T01:00:08;5.37;;;3.27;;
438;SDS011;206;48.782;9.252;2024-01-27T01:02:34;2.40;;;1.97;;
438;SDS011;206;48.782;9.252;2024-01-27T01:05:01;4.80;;;2.47;;
438;SDS011;206;48.782;9.252;2024-01-27T01:07:28;4.30;;;2.53;;
438;SDS011;206;48.782;9.252;2024-01-27T01:09:54;3.50;;;2.10;;
438;SDS011;206;48.782;9.252;2024-01-27T01:12:20;3.10;;;2.60;;
438;SDS011;206;48.782;9.252;2024-01-27T01:14:46;6.27;;;2.30;;
438;SDS011;206;48.782;9.252;2024-01-27T01:17:12;3.50;;;2.30;;
438;SDS011;206;48.782;9.252;2024-01-27T01:19:37;13.37;;;3.17;;
438;SDS011;206;48.782;9.252;2024-01-27T01:22:04;5.93;;;2.50;;
438;SDS011;206;48.782;9.252;2024-01-27T01:24:29;5.53;;;2.60;;
438;SDS011;206;48.782;9.252;2024-01-27T01:26:55;7.43;;;3.70;;
438;SDS011;206;48.782;9.252;2024-01-27T01:29:21;4.00;;;2.80;;
438;SDS011;206;48.782;9.252;2024-01-27T01:31:47;5.20;;;3.00;;
438;SDS011;206;48.782;9.252;2024-01-27T01:34:13;3.97;;;3.40;;
438;SDS011;206;48.782;9.252;2024-01-27T01:36:39;6.10;;;3.17;;
438;SDS011;206;48.782;9.252;2024-01-27T01:39:04;6.17;;;2.70;;
438;SDS011;206;48.782;9.252;2024-01-27T01:41:31;5.10;;;3.60;;
438;SDS011;206;48.782;9.252;2024-01-27T01:43:57;3.40;;;2.90;;
438;SDS011;206;48.782;9.252;2024-01-27T01:46:22;5.47;;;3.20;;
438;SDS011;206;48.782;9.252;2024-01-27T01:48:49;6.30;;;3.17;;
438;SDS011;206;48.782;9.252;2024-01-27T01:51:15;13.30;;;4.90;;
438;SDS011;206;48.782;9.252;2024-01-27T01:53:42;11.97;;;5.30;;
438;SDS011;206;48.782;9.252;2024-01-27T01:56:10;6.77;;;4.13;;
438;SDS011;206;48.782;9.252;2024-01-27T01:58:38;9.70;;;5.03;;
438;SDS011;206;48.782;9.252;2024-01-27T02:01:04;6.20;;;4.70;;
438;SDS011;206;48.782;9.252;2024-01-27T02:03:29;13.73;;;4.80;;
438;SDS011;206;48.782;9.252;2024-01-27T02:05:55;16.43;;;7.80;;
438;SDS011;206;48.782;9.252;2024-01-27T02:08:21;13.97;;;6.97;;
438;SDS011;206;48.782;9.252;2024-01-27T02:10:46;12.63;;;7.43;;
438;SDS011;206;48.782;9.252;2024-01-27T02:13:18;13.37;;;7.47;;
438;SDS011;206;48.782;9.252;2024-01-27T02:15:45;19.07;;;5.07;;
438;SDS011;206;48.782;9.252;2024-01-27T02:18:11;9.03;;;4.83;;
438;SDS011;206;48.782;9.252;2024-01-27T02:20:37;11.20;;;4.63;;
438;SDS011;206;48.782;9.252;2024-01-27T02:23:04;5.07;;;4.03;;
438;SDS011;206;48.782;9.252;2024-01-27T02:25:33;5.13;;;2.77;;
438;SDS011;206;48.782;9.252;2024-01-27T02:27:59;8.00;;;2.50;;
438;SDS011;206;48.782;9.252;2024-01-27T02:30:25;9.17;;;3.13;;
438;SDS011;206;48.782;9.252;2024-01-27T02:32:51;5.10;;;3.10;;
438;SDS011;206;48.782;9.252;2024-01-27T02:35:17;6.60;;;4.67;;
438;SDS011;206;48.782;9.252;2024-01-27T02:37:43;3.23;;;3.03;;
438;SDS011;206;48.782;9.252;2024-01-27T02:40:09;5.90;;;4.63;;
438;SDS011;206;48.782;9.252;2024-01-27T02:42:35;7.00;;;3.97;;
438;SDS011;206;48.782;9.252;2024-01-27T02:45:02;5.00;;;3.80;;
438;SDS011;206;48.782;9.252;2024-01-27T02:47:28;6.80;;;4.40;;
438;SDS011;206;48.782;9.252;2024-01-27T02:49:53;7.10;;;4.03;;
438;SDS011;206;48.782;9.252;2024-01-27T02:52:19;9.83;;;4.53;;
438;SDS011;206;48.782;9.252;2024-01-27T02:54:44;10.90;;;4.90;;
438;SDS011;206;48.782;9.252;2024-01-27T02:57:10;6.30;;;3.53;;
438;SDS011;206;48.782;9.252;2024-01-27T02:59:36;11.33;;;5.00;;
438;SDS011;206;48.782;9.252;2024-01-27T03:02:04;4.20;;;3.50;;
438;SDS011;206;48.782;9.252;2024-01-27T03:04:30;14.17;;;4.30;;
438;SDS011;206;48.782;9.252;2024-01-27T03:06:55;7.53;;;4.10;;
438;SDS011;206;48.782;9.252;2024-01-27T03:09:21;7.53;;;3.17;;
438;SDS011;206;48.782;9.252;2024-01-27T03:11:46;7.90;;;4.10;;
438;SDS011;206;48.782;9.252;2024-01-27T03:14:12;7.17;;;4.27;;
438;SDS011;206;48.782;9.252;2024-01-27T03:16:37;9.70;;;3.70;;
438;SDS011;206;48.782;9.252;2024-01-27T03:19:03;4.57;;;3.30;;
438;SDS011;206;48.782;9.252;2024-01-27T03:21:29;9.90;;;4.40;;
438;SDS011;206;48.782;9.252;2024-01-27T03:23:54;4.53;;;3.27;;
438;SDS011;206;48.782;9.252;2024-01-27T03:26:20;7.20;;;4.50;;
438;SDS011;206;48.782;9.252;2024-01-27T03:28:46;7.17;;;4.30;;
438;SDS011;206;48.782;9.252;2024-01-27T03:31:11;8.00;;;3.80;;
438;SDS011;206;48.782;9.252;2024-01-27T03:33:37;6.73;;;5.03;;
438;SDS011;206;48.782;9.252;2024-01-27T03:36:02;5.83;;;4.60;;
438;SDS011;206;48.782;9.252;2024-01-27T03:38:33;9.47;;;5.97;;
438;SDS011;206;48.782;9.252;2024-01-27T03:41:01;7.77;;;5.23;;
438;SDS011;206;48.782;9.252;2024-01-27T03:43:27;7.07;;;5.03;;
438;SDS011;206;48.782;9.252;2024-01-27T03:45:52;8.37;;;5.13;;
438;SDS011;206;48.782;9.252;2024-01-27T03:48:18;8.80;;;5.03;;
438;SDS011;206;48.782;9.252;2024-01-27T03:50:43;11.73;;;6.07;;
438;SDS011;206;48.782;9.252;2024-01-27T03:53:09;5.10;;;4.50;;
438;SDS011;206;48.782;9.252;2024-01-27T03:55:35;8.97;;;4.40;;
438;SDS011;206;48.782;9.252;2024-01-27T03:58:00;12.63;;;5.20;;
438;SDS011;206;48.782;9.252;2024-01-27T04:00:26;6.90;;;5.30;;
438;SDS011;206;48.782;9.252;2024-01-27T04:02:54;5.73;;;4.40;;
438;SDS011;206;48.782;9.252;2024-01-27T04:05:20;6.47;;;3.97;;
438;SDS011;206;48.782;9.252;2024-01-27T04:07:45;8.43;;;5.00;;
438;SDS011;206;48.782;9.252;2024-01-27T04:10:11;5.53;;;3.67;;
438;SDS011;206;48.782;9.252;2024-01-27T04:12:37;8.03;;;4.30;;
438;SDS011;206;48.782;9.252;2024-01-27T04:15:02;7.23;;;4.77;;
438;SDS011;206;48.782;9.252;2024-01-27T04:17:28;7.90;;;4.73;;
438;SDS011;206;48.782;9.252;2024-01-27T04:20:03;9.83;;;4.40;;
438;SDS011;206;48.782;9.252;2024-01-27T04:22:29;6.70;;;4.30;;
438;SDS011;206;48.782;9.252;2024-01-27T04:24:55;7.27;;;4.67;;
438;SDS011;206;48.782;9.252;2024-01-27T04:27:20;5.40;;;3.70;;
438;SDS011;206;48.782;9.252;2024-01-27T04:29:46;9.37;;;4.40;;
438;SDS011;206;48.782;9.252;2024-01-27T04:32:12;5.40;;;3.40;;
438;SDS011;206;48.782;9.252;2024-01-27T04:34:38;5.57;;;3.40;;
438;SDS011;206;48.782;9.252;2024-01-27T04:37:04;5.13;;;4.13;;
438;SDS011;206;48.782;9.252;2024-01-27T04:39:29;4.80;;;3.50;;
438;SDS011;206;48.782;9.252;2024-01-27T04:41:55;3.83;;;3.70;;
438;SDS011;206;48.782;9.252;2024-01-27T04:44:21;6.53;;;4.10;;
438;SDS011;206;48.782;9.252;2024-01-27T04:46:46;6.03;;;4.30;;
438;SDS011;206;48.782;9.252;2024-01-27T04:49:14;6.83;;;3.67;;
438;SDS011;206;48.782;9.252;2024-01-27T04:51:40;4.23;;;3.70;;
438;SDS011;206;48.782;9.252;2024-01-27T04:54:05;7.20;;;4.13;;
438;SDS011;206;48.782;9.252;2024-01-27T04:56:31;8.40;;;5.10;;
438;SDS011;206;48.782;9.252;2024-01-27T04:58:56;5.90;;;3.50;;
438;SDS011;206;48.782;9.252;2024-01-27T05:01:22;8.40;;;4.33;;
438;SDS011;206;48.782;9.252;2024-01-27T05:03:48;7.90;;;5.33;;
438;SDS011;206;48.782;9.252;2024-01-27T05:06:13;5.93;;;4.73;;
438;SDS011;206;48.782;9.252;2024-01-27T05:08:39;4.80;;;4.23;;
438;SDS011;206;48.782;9.252;2024-01-27T05:11:05;6.50;;;4.23;;
438;SDS011;206;48.782;9.252;2024-01-27T05:13:31;11.70;;;4.40;;
438;SDS011;206;48.782;9.252;2024-01-27T05:15:57;6.50;;;4.30;;
438;SDS011;206;48.782;9.252;2024-01-27T05:18:25;8.37;;;5.03;;
438;SDS011;206;48.782;9.252;2024-01-27T05:20:51;6.87;;;4.70;;
438;SDS011;206;48.782;9.252;2024-01-27T05:23:17;7.83;;;4.57;;
438;SDS011;206;48.782;9.252;2024-01-27T05:25:42;7.23;;;4.27;;
438;SDS011;206;48.782;9.252;2024-01-27T05:28:08;7.90;;;4.17;;
438;SDS011;206;48.782;9.252;2024-01-27T05:30:33;8.80;;;4.60;;
438;SDS011;206;48.782;9.252;2024-01-27T05:32:59;7.03;;;4.50;;
438;SDS011;206;48.782;9.252;2024-01-27T05:35:25;5.83;;;3.53;;
438;SDS011;206;48.782;9.252;2024-01-27T05:37:50;7.97;;;3.97;;
438;SDS011;206;48.782;9.252;2024-01-27T05:40:16;4.53;;;4.17;;
438;SDS011;206;48.782;9.252;2024-01-27T05:42:42;3.70;;;3.50;;
438;SDS011;206;48.782;9.252;2024-01-27T05:45:10;8.00;;;3.93;;
438;SDS011;206;48.782;9.252;2024-01-27T05:47:35;4.03;;;3.47;;
438;SDS011;206;48.782;9.252;2024-01-27T05:50:01;6.70;;;5.00;;
438;SDS011;206;48.782;9.252;2024-01-27T05:52:28;6.90;;;4.43;;
438;SDS011;206;48.782;9.252;2024-01-27T05:54:54;7.90;;;4.40;;
438;SDS011;206;48.782;9.252;2024-01-27T05:57:19;3.77;;;3.37;;
438;SDS011;206;48.782;9.252;2024-01-27T05:59:45;10.43;;;4.90;;
438;SDS011;206;48.782;9.252;2024-01-27T06:02:11;7.10;;;4.87;;
438;SDS011;206;48.782;9.252;2024-01-27T06:04:36;4.50;;;3.90;;
438;SDS011;206;48.782;9.252;2024-01-27T06:07:02;7.47;;;5.30;;
438;SDS011;206;48.782;9.252;2024-01-27T06:09:27;9.43;;;4.03;;
438;SDS011;206;48.782;9.252;2024-01-27T06:11:53;5.87;;;4.87;;
438;SDS011;206;48.782;9.252;2024-01-27T06:14:22;4.80;;;3.63;;
438;SDS011;206;48.782;9.252;2024-01-27T06:16:48;7.57;;;4.43;;
438;SDS011;206;48.782;9.252;2024-01-27T06:19:19;7.13;;;4.03;;
438;SDS011;206;48.782;9.252;2024-01-27T06:21:45;5.13;;;4.20;;
438;SDS011;206;48.782;9.252;2024-01-27T06:24:10;10.50;;;4.70;;
438;SDS011;206;48.782;9.252;2024-01-27T06:26:36;10.83;;;4.40;;
438;SDS011;206;48.782;9.252;2024-01-27T06:29:02;10.80;;;5.30;;
438;SDS011;206;48.782;9.252;2024-01-27T06:31:29;15.53;;;4.30;;
438;SDS011;206;48.782;9.252;2024-01-27T06:33:54;7.80;;;4.07;;
438;SDS011;206;48.782;9.252;2024-01-27T06:36:20;5.73;;;4.50;;
438;SDS011;206;48.782;9.252;2024-01-27T06:38:49;5.80;;;5.30;;
438;SDS011;206;48.782;9.252;2024-01-27T06:41:15;5.30;;;5.00;;
438;SDS011;206;48.782;9.252;2024-01-27T06:43:41;6.90;;;4.40;;
438;SDS011;206;48.782;9.252;2024-01-27T06:46:07;10.70;;;5.57;;
438;SDS011;206;48.782;9.252;2024-01-27T06:48:33;17.67;;;5.07;;
438;SDS011;206;48.782;9.252;2024-01-27T06:50:59;10.50;;;5.93;;
438;SDS011;206;48.782;9.252;2024-01-27T06:53:26;8.93;;;4.67;;
438;SDS011;206;48.782;9.252;2024-01-27T06:55:52;7.10;;;5.03;;
438;SDS011;206;48.782;9.252;2024-01-27T06:58:18;5.30;;;4.70;;
438;SDS011;206;48.782;9.252;2024-01-27T07:00:44;5.57;;;4.80;;
438;SDS011;206;48.782;9.252;2024-01-27T07:03:10;6.70;;;4.30;;
438;SDS011;206;48.782;9.252;2024-01-27T07:05:36;7.20;;;4.83;;
438;SDS011;206;48.782;9.252;2024-01-27T07:08:08;7.00;;;4.70;;
438;SDS011;206;48.782;9.252;2024-01-27T07:10:34;9.97;;;5.80;;
438;SDS011;206;48.782;9.252;2024-01-27T07:13:00;10.40;;;6.10;;
438;SDS011;206;48.782;9.252;2024-01-27T07:15:26;7.93;;;5.00;;
438;SDS011;206;48.782;9.252;2024-01-27T07:17:53;7.97;;;4.70;;
438;SDS011;206;48.782;9.252;2024-01-27T07:20:19;11.23;;;5.80;;
438;SDS011;206;48.782;9.252;2024-01-27T07:22:46;8.87;;;5.10;;
438;SDS011;206;48.782;9.252;2024-01-27T07:25:12;8.60;;;4.90;;
438;SDS011;206;48.782;9.252;2024-01-27T07:27:38;8.67;;;5.17;;
438;SDS011;206;48.782;9.252;2024-01-27T07:30:03;6.50;;;4.50;;
438;SDS011;206;48.782;9.252;2024-01-27T07:32:30;11.07;;;5.80;;
438;SDS011;206;48.782;9.252;2024-01-27T07:34:56;7.83;;;4.80;;
438;SDS011;206;48.782;9.252;2024-01-27T07:37:21;8.10;;;5.73;;
438;SDS011;206;48.782;9.252;2024-01-27T07:39:47;7.40;;;5.10;;
438;SDS011;206;48.782;9.252;2024-01-27T07:42:14;10.40;;;5.63;;
438;SDS011;206;48.782;9.252;2024-01-27T07:44:40;7.23;;;5.07;;
438;SDS011;206;48.782;9.252;2024-01-27T07:47:07;6.40;;;5.30;;
438;SDS011;206;48.782;9.252;2024-01-27T07:49:33;9.33;;;5.93;;
438;SDS011;206;48.782;9.252;2024-01-27T07:51:59;9.93;;;6.03;;
438;SDS011;206;48.782;9.252;2024-01-27T07:54:25;10.73;;;6.97;;
438;SDS011;206;48.782;9.252;2024-01-27T07:56:50;8.07;;;6.33;;
438;SDS011;206;48.782;9.252;2024-01-27T07:59:16;13.77;;;6.13;;
438;SDS011;206;48.782;9.252;2024-01-27T08:01:43;10.80;;;6.70;;
438;SDS011;206;48.782;9.252;2024-01-27T08:04:08;7.77;;;5.40;;
438;SDS011;206;48.782;9.252;2024-01-27T08:06:34;11.33;;;5.73;;
438;SDS011;206;48.782;9.252;2024-01-27T08:09:10;7.47;;;5.17;;
438;SDS011;206;48.782;9.252;2024-01-27T08:11:36;9.43;;;7.40;;
438;SDS011;206;48.782;9.252;2024-01-27T08:14:02;8.40;;;6.60;;
438;SDS011;206;48.782;9.252;2024-01-27T08:16:28;11.93;;;7.83;;
438;SDS011;206;48.782;9.252;2024-01-27T08:18:53;9.53;;;6.83;;
438;SDS011;206;48.782;9.252;2024-01-27T08:21:19;9.30;;;7.07;;
438;SDS011;206;48.782;9.252;2024-01-27T08:23:44;7.97;;;6.60;;
438;SDS011;206;48.782;9.252;2024-01-27T08:26:10;15.90;;;8.10;;
438;SDS011;206;48.782;9.252;2024-01-27T08:28:36;6.77;;;6.20;;
438;SDS011;206;48.782;9.252;2024-01-27T08:31:01;9.30;;;7.30;;
438;SDS011;206;48.782;9.252;2024-01-27T08:33:27;6.83;;;6.33;;
438;SDS011;206;48.782;9.252;2024-01-27T08:35:53;6.13;;;5.03;;
438;SDS011;206;48.782;9.252;2024-01-27T08:38:19;6.33;;;5.80;;
438;SDS011;206;48.782;9.252;2024-01-27T08:40:44;7.50;;;6.40;;
438;SDS011;206;48.782;9.252;2024-01-27T08:43:10;8.70;;;5.17;;
438;SDS011;206;48.782;9.252;2024-01-27T08:45:37;7.27;;;6.27;;
438;SDS011;206;48.782;9.252;2024-01-27T08:48:02;9.83;;;5.97;;
438;SDS011;206;48.782;9.252;2024-01-27T08:50:28;8.30;;;5.50;;
438;SDS011;206;48.782;9.252;2024-01-27T08:52:54;10.13;;;6.13;;
438;SDS011;206;48.782;9.252;2024-01-27T08:55:19;7.80;;;6.00;;
438;SDS011;206;48.782;9.252;2024-01-27T08:57:48;6.80;;;5.73;;
438;SDS011;206;48.782;9.252;2024-01-27T09:00:14;7.03;;;6.63;;
438;SDS011;206;48.782;9.252;2024-01-27T09:02:41;8.40;;;7.07;;
438;SDS011;206;48.782;9.252;2024-01-27T09:05:07;10.67;;;7.60;;
438;SDS011;206;48.782;9.252;2024-01-27T09:07:33;8.00;;;6.80;;
438;SDS011;206;48.782;9.252;2024-01-27T09:09:59;9.97;;;7.80;;
438;SDS011;206;48.782;9.252;2024-01-27T09:12:25;10.43;;;8.23;;
438;SDS011;206;48.782;9.252;2024-01-27T09:14:50;10.70;;;6.20;;
438;SDS011;206;48.782;9.252;2024-01-27T09:17:16;10.37;;;5.87;;
438;SDS011;206;48.782;9.252;2024-01-27T09:19:42;8.40;;;6.37;;
438;SDS011;206;48.782;9.252;2024-01-27T09:22:08;7.50;;;6.50;;
438;SDS011;206;48.782;9.252;2024-01-27T09:24:33;6.87;;;6.47;;
438;SDS011;206;48.782;9.252;2024-01-27T09:26:59;7.63;;;6.10;;
438;SDS011;206;48.782;9.252;2024-01-27T09:29:24;6.30;;;5.53;;
438;SDS011;206;48.782;9.252;2024-01-27T09:31:50;11.50;;;6.50;;
438;SDS011;206;48.782;9.252;2024-01-27T09:34:15;7.37;;;6.17;;
438;SDS011;206;48.782;9.252;2024-01-27T09:36:41;15.90;;;6.00;;
438;SDS011;206;48.782;9.252;2024-01-27T09:39:07;10.23;;;6.00;;
438;SDS011;206;48.782;9.252;2024-01-27T09:41:33;7.37;;;6.00;;
438;SDS011;206;48.782;9.252;2024-01-27T09:44:02;8.80;;;6.63;;
438;SDS011;206;48.782;9.252;2024-01-27T09:46:29;6.67;;;5.00;;
438;SDS011;206;48.782;9.252;2024-01-27T09:48:55;7.50;;;5.70;;
438;SDS011;206;48.782;9.252;2024-01-27T09:51:21;7.90;;;5.77;;
438;SDS011;206;48.782;9.252;2024-01-27T09:53:47;7.20;;;5.10;;
438;SDS011;206;48.782;9.252;2024-01-27T09:56:15;4.43;;;3.93;;
438;SDS011;206;48.782;9.252;2024-01-27T09:58:43;5.70;;;5.03;;
438;SDS011;206;48.782;9.252;2024-01-27T10:01:12;6.83;;;5.00;;
438;SDS011;206;48.782;9.252;2024-01-27T10:03:40;6.23;;;3.97;;
438;SDS011;206;48.782;9.252;2024-01-27T10:06:09;8.53;;;4.80;;
438;SDS011;206;48.782;9.252;2024-01-27T10:08:35;9.90;;;5.70;;
438;SDS011;206;48.782;9.252;2024-01-27T10:11:08;5.00;;;4.40;;
438;SDS011;206;48.782;9.252;2024-01-27T10:13:35;5.23;;;4.10;;
438;SDS011;206;48.782;9.252;2024-01-27T10:18:28;5.13;;;4.30;;
438;SDS011;206;48.782;9.252;2024-01-27T10:20:54;9.17;;;4.70;;
438;SDS011;206;48.782;9.252;2024-01-27T10:23:20;4.60;;;4.30;;
438;SDS011;206;48.782;9.252;2024-01-27T10:25:45;5.00;;;4.23;;
438;SDS011;206;48.782;9.252;2024-01-27T10:28:11;7.80;;;4.77;;
438;SDS011;206;48.782;9.252;2024-01-27T10:30:37;7.47;;;3.57;;
438;SDS011;206;48.782;9.252;2024-01-27T10:33:02;6.03;;;4.13;;
438;SDS011;206;48.782;9.252;2024-01-27T10:35:28;5.73;;;3.30;;
438;SDS011;206;48.782;9.252;2024-01-27T10:37:54;5.90;;;4.47;;
438;SDS011;206;48.782;9.252;2024-01-27T10:40:21;9.40;;;4.03;;
438;SDS011;206;48.782;9.252;2024-01-27T10:42:51;9.17;;;4.87;;
438;SDS011;206;48.782;9.252;2024-01-27T10:45:48;5.10;;;3.57;;
438;SDS011;206;48.782;9.252;2024-01-27T10:48:14;9.43;;;3.97;;
438;SDS011;206;48.782;9.252;2024-01-27T10:50:40;8.07;;;4.00;;
438;SDS011;206;48.782;9.252;2024-01-27T10:53:09;8.97;;;3.67;;
438;SDS011;206;48.782;9.252;2024-01-27T10:55:45;8.00;;;4.93;;
438;SDS011;206;48.782;9.252;2024-01-27T10:58:12;7.37;;;4.47;;
438;SDS011;206;48.782;9.252;2024-01-27T11:00:38;9.23;;;4.40;;
438;SDS011;206;48.782;9.252;2024-01-27T11:03:07;8.77;;;3.90;;
438;SDS011;206;48.782;9.252;2024-01-27T11:05:35;8.17;;;4.53;;
438;SDS011;206;48.782;9.252;2024-01-27T11:08:01;6.67;;;4.50;;
438;SDS011;206;48.782;9.252;2024-01-27T11:10:29;5.43;;;3.90;;
438;SDS011;206;48.782;9.252;2024-01-27T11:13:00;11.73;;;3.97;;
438;SDS011;206;48.782;9.252;2024-01-27T11:15:29;14.37;;;4.60;;
438;SDS011;206;48.782;9.252;2024-01-27T11:17:58;7.43;;;3.90;;
438;SDS011;206;48.782;9.252;2024-01-27T11:20:32;7.40;;;4.80;;
438;SDS011;206;48.782;9.252;2024-01-27T11:23:09;10.37;;;5.20;;
438;SDS011;206;48.782;9.252;2024-01-27T11:25:35;11.00;;;5.33;;
438;SDS011;206;48.782;9.252;2024-01-27T11:28:10;9.03;;;4.60;;
438;SDS011;206;48.782;9.252;2024-01-27T11:30:40;14.87;;;4.83;;
438;SDS011;206;48.782;9.252;2024-01-27T11:33:13;7.00;;;4.00;;
438;SDS011;206;48.782;9.252;2024-01-27T11:35:38;8.03;;;3.67;;
438;SDS011;206;48.782;9.252;2024-01-27T11:38:04;9.50;;;3.80;;
438;SDS011;206;48.782;9.252;2024-01-27T11:40:30;4.77;;;3.60;;
438;SDS011;206;48.782;9.252;2024-01-27T11:42:56;12.10;;;3.93;;
438;SDS011;206;48.782;9.252;2024-01-27T11:45:26;7.83;;;3.60;;
438;SDS011;206;48.782;9.252;2024-01-27T11:47:55;15.13;;;4.80;;
438;SDS011;206;48.782;9.252;2024-01-27T11:50:21;8.17;;;4.13;;
438;SDS011;206;48.782;9.252;2024-01-27T11:52:47;14.57;;;4.90;;
438;SDS011;206;48.782;9.252;2024-01-27T11:55:13;12.97;;;4.27;;
438;SDS011;206;48.782;9.252;2024-01-27T11:57:44;9.43;;;4.90;;
438;SDS011;206;48.782;9.252;2024-01-27T12:00:10;12.77;;;8.17;;
438;SDS011;206;48.782;9.252;2024-01-27T12:02:36;14.63;;;8.00;;
438;SDS011;206;48.782;9.252;2024-01-27T12:05:03;17.40;;;9.27;;
438;SDS011;206;48.782;9.252;2024-01-27T12:07:30;7.83;;;5.93;;
438;SDS011;206;48.782;9.252;2024-01-27T12:09:56;6.63;;;4.20;;
438;SDS011;206;48.782;9.252;2024-01-27T12:12:21;6.90;;;4.53;;
438;SDS011;206;48.782;9.252;2024-01-27T12:14:48;11.80;;;6.30;;
438;SDS011;206;48.782;9.252;2024-01-27T12:17:14;11.83;;;8.20;;
438;SDS011;206;48.782;9.252;2024-01-27T12:19:45;8.20;;;4.60;;
438;SDS011;206;48.782;9.252;2024-01-27T12:22:33;7.53;;;4.13;;
438;SDS011;206;48.782;9.252;2024-01-27T12:25:08;11.30;;;3.77;;
438;SDS011;206;48.782;9.252;2024-01-27T12:27:35;18.93;;;4.33;;
438;SDS011;206;48.782;9.252;2024-01-27T12:30:01;9.67;;;4.07;;
438;SDS011;206;48.782;9.252;2024-01-27T12:32:28;8.50;;;3.70;;
438;SDS011;206;48.782;9.252;2024-01-27T12:34:53;9.13;;;4.87;;
438;SDS011;206;48.782;9.252;2024-01-27T12:37:21;8.60;;;4.37;;
438;SDS011;206;48.782;9.252;2024-01-27T12:39:47;11.30;;;4.60;;
438;SDS011;206;48.782;9.252;2024-01-27T12:42:15;6.73;;;3.67;;
438;SDS011;206;48.782;9.252;2024-01-27T12:44:42;7.30;;;3.50;;
438;SDS011;206;48.782;9.252;2024-01-27T12:47:09;11.67;;;9.40;;
438;SDS011;206;48.782;9.252;2024-01-27T12:49:35;9.30;;;4.90;;
438;SDS011;206;48.782;9.252;2024-01-27T12:52:01;11.53;;;4.90;;
438;SDS011;206;48.782;9.252;2024-01-27T12:54:30;6.80;;;5.37;;
438;SDS011;206;48.782;9.252;2024-01-27T12:56:56;10.47;;;5.10;;
438;SDS011;206;48.782;9.252;2024-01-27T12:59:21;22.77;;;5.27;;
438;SDS011;206;48.782;9.252;2024-01-27T13:01:48;7.90;;;7.20;;
438;SDS011;206;48.782;9.252;2024-01-27T13:04:14;11.03;;;6.40;;
438;SDS011;206;48.782;9.252;2024-01-27T13:06:40;8.30;;;4.17;;
438;SDS011;206;48.782;9.252;2024-01-27T13:09:05;4.87;;;4.60;;
438;SDS011;206;48.782;9.252;2024-01-27T13:11:32;7.13;;;4.40;;
438;SDS011;206;48.782;9.252;2024-01-27T13:13:58;7.50;;;4.60;;
438;SDS011;206;48.782;9.252;2024-01-27T13:16:23;7.17;;;4.60;;
438;SDS011;206;48.782;9.252;2024-01-27T13:18:49;10.30;;;5.33;;
438;SDS011;206;48.782;9.252;2024-01-27T13:21:15;11.23;;;5.17;;
438;SDS011;206;48.782;9.252;2024-01-27T13:23:40;8.30;;;4.97;;
438;SDS011;206;48.782;9.252;2024-01-27T13:26:06;13.87;;;6.20;;
438;SDS011;206;48.782;9.252;2024-01-27T13:28:31;10.90;;;3.93;;
438;SDS011;206;48.782;9.252;2024-01-27T13:30:57;8.10;;;4.23;;
438;SDS011;206;48.782;9.252;2024-01-27T13:33:23;8.73;;;5.10;;
438;SDS011;206;48.782;9.252;2024-01-27T13:35:48;9.50;;;4.30;;
438;SDS011;206;48.782;9.252;2024-01-27T13:38:14;10.03;;;5.17;;
438;SDS011;206;48.782;9.252;2024-01-27T13:40:40;10.20;;;4.73;;
438;SDS011;206;48.782;9.252;2024-01-27T13:43:07;11.20;;;4.20;;
438;SDS011;206;48.782;9.252;2024-01-27T13:45:33;5.63;;;3.73;;
438;SDS011;206;48.782;9.252;2024-01-27T13:47:59;8.93;;;3.80;;
438;SDS011;206;48.782;9.252;2024-01-27T13:50:25;8.23;;;5.13;;
438;SDS011;206;48.782;9.252;2024-01-27T13:52:52;9.30;;;4.50;;
438;SDS011;206;48.782;9.252;2024-01-27T13:55:18;9.03;;;4.73;;
438;SDS011;206;48.782;9.252;2024-01-27T13:57:44;7.47;;;5.60;;
438;SDS011;206;48.782;9.252;2024-01-27T14:00:10;7.80;;;5.73;;
438;SDS011;206;48.782;9.252;2024-01-27T14:02:36;6.47;;;4.77;;
438;SDS011;206;48.782;9.252;2024-01-27T14:05:02;6.93;;;4.20;;
438;SDS011;206;48.782;9.252;2024-01-27T14:07:29;6.53;;;4.33;;
438;SDS011;206;48.782;9.252;2024-01-27T14:09:54;11.50;;;4.77;;
438;SDS011;206;48.782;9.252;2024-01-27T14:12:20;8.10;;;4.40;;
438;SDS011;206;48.782;9.252;2024-01-27T14:14:46;7.60;;;4.50;;
438;SDS011;206;48.782;9.252;2024-01-27T14:17:11;4.93;;;3.27;;
438;SDS011;206;48.782;9.252;2024-01-27T14:19:37;7.47;;;3.63;;
438;SDS011;206;48.782;9.252;2024-01-27T14:22:04;7.30;;;4.30;;
438;SDS011;206;48.782;9.252;2024-01-27T14:24:31;4.90;;;3.17;;
438;SDS011;206;48.782;9.252;2024-01-27T14:26:58;4.27;;;3.17;;
438;SDS011;206;48.782;9.252;2024-01-27T14:29:24;5.30;;;2.83;;
438;SDS011;206;48.782;9.252;2024-01-27T14:31:51;4.93;;;2.73;;
438;SDS011;206;48.782;9.252;2024-01-27T14:34:17;8.63;;;3.57;;
438;SDS011;206;48.782;9.252;2024-01-27T14:36:43;7.63;;;3.20;;
438;SDS011;206;48.782;9.252;2024-01-27T14:39:09;6.43;;;3.80;;
438;SDS011;206;48.782;9.252;2024-01-27T14:41:36;4.97;;;2.50;;
438;SDS011;206;48.782;9.252;2024-01-27T14:44:05;7.63;;;2.63;;
438;SDS011;206;48.782;9.252;2024-01-27T14:46:31;6.90;;;3.07;;
438;SDS011;206;48.782;9.252;2024-01-27T14:48:56;7.40;;;2.90;;
438;SDS011;206;48.782;9.252;2024-01-27T14:51:22;6.53;;;3.00;;
438;SDS011;206;48.782;9.252;2024-01-27T14:53:48;4.00;;;2.33;;
438;SDS011;206;48.782;9.252;2024-01-27T14:56:14;8.53;;;2.90;;
438;SDS011;206;48.782;9.252;2024-01-27T14:58:40;18.50;;;4.40;;
438;SDS011;206;48.782;9.252;2024-01-27T15:01:06;7.00;;;3.57;;
438;SDS011;206;48.782;9.252;2024-01-27T15:03:32;4.00;;;2.30;;
438;SDS011;206;48.782;9.252;2024-01-27T15:05:58;4.30;;;2.00;;
438;SDS011;206;48.782;9.252;2024-01-27T15:08:24;4.53;;;2.50;;
438;SDS011;206;48.782;9.252;2024-01-27T15:10:49;3.60;;;2.33;;
438;SDS011;206;48.782;9.252;2024-01-27T15:13:15;5.20;;;2.40;;
438;SDS011;206;48.782;9.252;2024-01-27T15:15:48;3.57;;;2.53;;
438;SDS011;206;48.782;9.252;2024-01-27T15:18:14;4.67;;;2.43;;
438;SDS011;206;48.782;9.252;2024-01-27T15:20:41;3.73;;;1.93;;
438;SDS011;206;48.782;9.252;2024-01-27T15:23:06;4.23;;;3.17;;
438;SDS011;206;48.782;9.252;2024-01-27T15:25:32;2.60;;;2.23;;
438;SDS011;206;48.782;9.252;2024-01-27T15:27:57;5.83;;;2.70;;
438;SDS011;206;48.782;9.252;2024-01-27T15:30:23;6.33;;;2.77;;
438;SDS011;206;48.782;9.252;2024-01-27T15:32:49;6.10;;;2.60;;
438;SDS011;206;48.782;9.252;2024-01-27T15:35:14;7.27;;;2.83;;
438;SDS011;206;48.782;9.252;2024-01-27T15:37:40;4.43;;;2.20;;
438;SDS011;206;48.782;9.252;2024-01-27T15:40:06;9.90;;;3.90;;